sensor_id;sensor_type;location;lat;lon;timestamp;temperature;humidity
6666;DHT22;3369;49.906;8.598;2024-03-17T00:00:03;8.20;99.90
6666;DHT22;3369;49.906;8.598;2024-03-17T00:02:30;8.20;99.90
6666;DHT22;3369;49.906;8.598;2024-03-17T00:04:55;8.30;99.90
6666;DHT22;3369;49.906;8.598;2024-03-17T00:07:21;8.30;99.90
6666;DHT22;3369;49.906;8.598;2024-03-17T00:09:47;8.30;99.90
6666;DHT22;3369;49.906;8.598;2024-03-17T00:12:12;8.30;99.90
6666;DHT22;3369;49.906;8.598;2024-03-17T00:14:38;8.30;99.90
6666;DHT22;3369;49.906;8.598;2024-03-17T00:17:04;8.30;99.90
6666;DHT22;3369;49.906;8.598;2024-03-17T00:19:30;8.20;99.90
6666;DHT22;3369;49.906;8.598;2024-03-17T00:21:55;8.20;99.90
6666;DHT22;3369;49.906;8.598;2024-03-17T00:24:21;8.20;99.90
6666;DHT22;3369;49.906;8.598;2024-03-17T00:26:47;8.20;99.90
6666;DHT22;3369;49.906;8.598;2024-03-17T00:29:14;8.20;99.90
6666;DHT22;3369;49.906;8.598;2024-03-17T00:31:40;8.10;99.90
6666;DHT22;3369;49.906;8.598;2024-03-17T00:34:06;8.10;99.90
6666;DHT22;3369;49.906;8.598;2024-03-17T00:36:32;8.00;99.90
6666;DHT22;3369;49.906;8.598;2024-03-17T00:38:58;8.00;99.90
6666;DHT22;3369;49.906;8.598;2024-03-17T00:41:23;8.00;99.90
6666;DHT22;3369;49.906;8.598;2024-03-17T00:43:49;7.90;99.90
6666;DHT22;3369;49.906;8.598;2024-03-17T00:46:16;7.90;99.90
6666;DHT22;3369;49.906;8.598;2024-03-17T00:48:43;7.90;99.90
6666;DHT22;3369;49.906;8.598;2024-03-17T00:51:09;7.80;99.90
6666;DHT22;3369;49.906;8.598;2024-03-17T00:53:35;7.70;99.90
6666;DHT22;3369;49.906;8.598;2024-03-17T00:56:00;7.60;99.90
6666;DHT22;3369;49.906;8.598;2024-03-17T00:58:27;7.50;99.90
6666;DHT22;3369;49.906;8.598;2024-03-17T01:00:52;7.50;99.90
6666;DHT22;3369;49.906;8.598;2024-03-17T01:03:18;7.40;99.90
6666;DHT22;3369;49.906;8.598;2024-03-17T01:05:44;7.30;99.90
6666;DHT22;3369;49.906;8.598;2024-03-17T01:08:12;7.10;99.90
6666;DHT22;3369;49.906;8.598;2024-03-17T01:10:41;7.00;99.90
6666;DHT22;3369;49.906;8.598;2024-03-17T01:13:07;6.90;99.90
6666;DHT22;3369;49.906;8.598;2024-03-17T01:15:38;6.80;99.90
6666;DHT22;3369;49.906;8.598;2024-03-17T01:18:04;6.70;99.90
6666;DHT22;3369;49.906;8.598;2024-03-17T01:20:37;6.60;99.90
6666;DHT22;3369;49.906;8.598;2024-03-17T01:23:03;6.60;99.90
6666;DHT22;3369;49.906;8.598;2024-03-17T01:25:29;6.50;99.90
6666;DHT22;3369;49.906;8.598;2024-03-17T01:27:58;6.50;99.90
6666;DHT22;3369;49.906;8.598;2024-03-17T01:30:23;6.40;99.90
6666;DHT22;3369;49.906;8.598;2024-03-17T01:32:51;6.40;99.90
6666;DHT22;3369;49.906;8.598;2024-03-17T01:35:16;6.30;99.90
6666;DHT22;3369;49.906;8.598;2024-03-17T01:37:42;6.20;99.90
6666;DHT22;3369;49.906;8.598;2024-03-17T01:40:09;6.10;99.90
6666;DHT22;3369;49.906;8.598;2024-03-17T01:42:39;6.10;99.90
6666;DHT22;3369;49.906;8.598;2024-03-17T01:47:43;6.00;99.90
6666;DHT22;3369;49.906;8.598;2024-03-17T01:50:09;6.00;99.90
6666;DHT22;3369;49.906;8.598;2024-03-17T01:52:36;5.90;99.90
6666;DHT22;3369;49.906;8.598;2024-03-17T01:55:06;5.80;99.90
6666;DHT22;3369;49.906;8.598;2024-03-17T01:57:32;5.80;99.90
6666;DHT22;3369;49.906;8.598;2024-03-17T01:59:58;5.70;99.90
6666;DHT22;3369;49.906;8.598;2024-03-17T02:02:24;5.70;99.90
6666;DHT22;3369;49.906;8.598;2024-03-17T02:04:50;5.60;99.90
6666;DHT22;3369;49.906;8.598;2024-03-17T02:07:16;5.50;99.90
6666;DHT22;3369;49.906;8.598;2024-03-17T02:09:41;5.40;99.90
6666;DHT22;3369;49.906;8.598;2024-03-17T02:12:09;5.30;99.90
6666;DHT22;3369;49.906;8.598;2024-03-17T02:14:36;5.30;99.90
6666;DHT22;3369;49.906;8.598;2024-03-17T02:17:01;5.20;99.90
6666;DHT22;3369;49.906;8.598;2024-03-17T02:19:27;5.10;99.90
6666;DHT22;3369;49.906;8.598;2024-03-17T02:21:53;5.00;99.90
6666;DHT22;3369;49.906;8.598;2024-03-17T02:24:18;4.90;99.90
6666;DHT22;3369;49.906;8.598;2024-03-17T02:26:44;4.90;99.90
6666;DHT22;3369;49.906;8.598;2024-03-17T02:29:10;4.80;99.90
6666;DHT22;3369;49.906;8.598;2024-03-17T02:31:35;4.80;99.90
6666;DHT22;3369;49.906;8.598;2024-03-17T02:34:01;4.70;99.90
6666;DHT22;3369;49.906;8.598;2024-03-17T02:36:27;4.60;99.90
6666;DHT22;3369;49.906;8.598;2024-03-17T02:38:52;4.60;99.90
6666;DHT22;3369;49.906;8.598;2024-03-17T02:41:36;4.50;99.90
6666;DHT22;3369;49.906;8.598;2024-03-17T02:44:02;4.40;99.90
6666;DHT22;3369;49.906;8.598;2024-03-17T02:46:28;4.40;99.90
6666;DHT22;3369;49.906;8.598;2024-03-17T02:48:54;4.40;99.90
6666;DHT22;3369;49.906;8.598;2024-03-17T02:51:21;4.30;99.90
6666;DHT22;3369;49.906;8.598;2024-03-17T02:53:48;4.40;99.90
6666;DHT22;3369;49.906;8.598;2024-03-17T02:56:15;4.40;99.90
6666;DHT22;3369;49.906;8.598;2024-03-17T02:58:45;4.50;99.90
6666;DHT22;3369;49.906;8.598;2024-03-17T03:01:12;4.50;99.90
6666;DHT22;3369;49.906;8.598;2024-03-17T03:03:37;4.50;99.90
6666;DHT22;3369;49.906;8.598;2024-03-17T03:06:04;4.40;99.90
6666;DHT22;3369;49.906;8.598;2024-03-17T03:08:43;4.40;99.90
6666;DHT22;3369;49.906;8.598;2024-03-17T03:11:10;4.40;99.90
6666;DHT22;3369;49.906;8.598;2024-03-17T03:13:41;4.40;99.90
6666;DHT22;3369;49.906;8.598;2024-03-17T03:16:12;4.40;99.90
6666;DHT22;3369;49.906;8.598;2024-03-17T03:18:39;4.40;99.90
6666;DHT22;3369;49.906;8.598;2024-03-17T03:21:05;4.40;99.90
6666;DHT22;3369;49.906;8.598;2024-03-17T03:23:32;4.30;99.90
6666;DHT22;3369;49.906;8.598;2024-03-17T03:25:59;4.30;99.90
6666;DHT22;3369;49.906;8.598;2024-03-17T03:28:25;4.30;99.90
6666;DHT22;3369;49.906;8.598;2024-03-17T03:30:52;4.30;99.90
6666;DHT22;3369;49.906;8.598;2024-03-17T03:33:21;4.20;99.90
6666;DHT22;3369;49.906;8.598;2024-03-17T03:35:47;4.10;99.90
6666;DHT22;3369;49.906;8.598;2024-03-17T03:38:14;4.10;99.90
6666;DHT22;3369;49.906;8.598;2024-03-17T03:40:41;4.10;99.90
6666;DHT22;3369;49.906;8.598;2024-03-17T03:43:08;4.00;99.90
6666;DHT22;3369;49.906;8.598;2024-03-17T03:45:34;4.00;99.90
6666;DHT22;3369;49.906;8.598;2024-03-17T03:48:01;4.00;99.90
6666;DHT22;3369;49.906;8.598;2024-03-17T03:50:26;4.00;99.90
6666;DHT22;3369;49.906;8.598;2024-03-17T03:52:52;4.00;99.90
6666;DHT22;3369;49.906;8.598;2024-03-17T03:55:19;4.00;99.90
6666;DHT22;3369;49.906;8.598;2024-03-17T03:57:44;3.90;99.90
6666;DHT22;3369;49.906;8.598;2024-03-17T04:00:17;3.90;99.90
6666;DHT22;3369;49.906;8.598;2024-03-17T04:02:47;4.00;99.90
6666;DHT22;3369;49.906;8.598;2024-03-17T04:05:13;3.90;99.90
6666;DHT22;3369;49.906;8.598;2024-03-17T04:07:39;3.90;99.90
6666;DHT22;3369;49.906;8.598;2024-03-17T04:10:06;3.90;99.90
6666;DHT22;3369;49.906;8.598;2024-03-17T04:12:31;3.90;99.90
6666;DHT22;3369;49.906;8.598;2024-03-17T04:14:58;3.90;99.90
6666;DHT22;3369;49.906;8.598;2024-03-17T04:17:24;3.90;99.90
6666;DHT22;3369;49.906;8.598;2024-03-17T04:19:51;3.90;99.90
6666;DHT22;3369;49.906;8.598;2024-03-17T04:22:17;3.90;99.90
6666;DHT22;3369;49.906;8.598;2024-03-17T04:24:44;3.80;99.90
6666;DHT22;3369;49.906;8.598;2024-03-17T04:27:10;3.80;99.90
6666;DHT22;3369;49.906;8.598;2024-03-17T04:29:36;3.70;99.90
6666;DHT22;3369;49.906;8.598;2024-03-17T04:32:01;3.70;99.90
6666;DHT22;3369;49.906;8.598;2024-03-17T04:34:30;3.60;99.90
6666;DHT22;3369;49.906;8.598;2024-03-17T04:36:57;3.60;99.90
6666;DHT22;3369;49.906;8.598;2024-03-17T04:39:23;3.60;99.90
6666;DHT22;3369;49.906;8.598;2024-03-17T04:41:49;3.60;99.90
6666;DHT22;3369;49.906;8.598;2024-03-17T04:44:15;3.60;99.90
6666;DHT22;3369;49.906;8.598;2024-03-17T04:46:41;3.50;99.90
6666;DHT22;3369;49.906;8.598;2024-03-17T04:49:07;3.50;99.90
6666;DHT22;3369;49.906;8.598;2024-03-17T04:51:33;3.50;99.90
6666;DHT22;3369;49.906;8.598;2024-03-17T04:53:59;3.50;99.90
6666;DHT22;3369;49.906;8.598;2024-03-17T04:56:25;3.50;99.90
6666;DHT22;3369;49.906;8.598;2024-03-17T04:58:51;3.40;99.90
6666;DHT22;3369;49.906;8.598;2024-03-17T05:01:16;3.40;99.90
6666;DHT22;3369;49.906;8.598;2024-03-17T05:03:42;3.40;99.90
6666;DHT22;3369;49.906;8.598;2024-03-17T05:06:08;3.40;99.90
6666;DHT22;3369;49.906;8.598;2024-03-17T05:08:34;3.40;99.90
6666;DHT22;3369;49.906;8.598;2024-03-17T05:11:04;3.50;99.90
6666;DHT22;3369;49.906;8.598;2024-03-17T05:13:33;3.50;99.90
6666;DHT22;3369;49.906;8.598;2024-03-17T05:16:02;3.60;99.90
6666;DHT22;3369;49.906;8.598;2024-03-17T05:18:29;3.60;99.90
6666;DHT22;3369;49.906;8.598;2024-03-17T05:20:59;3.60;99.90
6666;DHT22;3369;49.906;8.598;2024-03-17T05:23:29;3.60;99.90
6666;DHT22;3369;49.906;8.598;2024-03-17T05:25:56;3.70;99.90
6666;DHT22;3369;49.906;8.598;2024-03-17T05:28:23;3.70;99.90
6666;DHT22;3369;49.906;8.598;2024-03-17T05:30:49;3.70;99.90
6666;DHT22;3369;49.906;8.598;2024-03-17T05:33:16;3.70;99.90
6666;DHT22;3369;49.906;8.598;2024-03-17T05:35:49;3.70;99.90
6666;DHT22;3369;49.906;8.598;2024-03-17T05:38:14;3.70;99.90
6666;DHT22;3369;49.906;8.598;2024-03-17T05:40:40;3.80;99.90
6666;DHT22;3369;49.906;8.598;2024-03-17T05:43:07;3.80;99.90
6666;DHT22;3369;49.906;8.598;2024-03-17T05:45:32;3.80;99.90
6666;DHT22;3369;49.906;8.598;2024-03-17T05:47:58;3.80;99.90
6666;DHT22;3369;49.906;8.598;2024-03-17T05:50:23;3.80;99.90
6666;DHT22;3369;49.906;8.598;2024-03-17T05:52:49;3.90;99.90
6666;DHT22;3369;49.906;8.598;2024-03-17T05:55:16;3.90;99.90
6666;DHT22;3369;49.906;8.598;2024-03-17T05:57:42;3.90;99.90
6666;DHT22;3369;49.906;8.598;2024-03-17T06:00:08;4.00;99.90
6666;DHT22;3369;49.906;8.598;2024-03-17T06:02:34;4.00;99.90
6666;DHT22;3369;49.906;8.598;2024-03-17T06:04:59;4.00;99.90
6666;DHT22;3369;49.906;8.598;2024-03-17T06:07:29;4.10;99.90
6666;DHT22;3369;49.906;8.598;2024-03-17T06:09:56;4.10;99.90
6666;DHT22;3369;49.906;8.598;2024-03-17T06:12:21;4.10;99.90
6666;DHT22;3369;49.906;8.598;2024-03-17T06:14:47;4.20;99.90
6666;DHT22;3369;49.906;8.598;2024-03-17T06:17:12;4.30;99.90
6666;DHT22;3369;49.906;8.598;2024-03-17T06:19:38;4.40;99.90
6666;DHT22;3369;49.906;8.598;2024-03-17T06:22:12;4.40;99.90
6666;DHT22;3369;49.906;8.598;2024-03-17T06:24:38;4.50;99.90
6666;DHT22;3369;49.906;8.598;2024-03-17T06:27:04;4.50;99.90
6666;DHT22;3369;49.906;8.598;2024-03-17T06:29:32;4.60;99.90
6666;DHT22;3369;49.906;8.598;2024-03-17T06:31:58;4.70;99.90
6666;DHT22;3369;49.906;8.598;2024-03-17T06:34:25;4.70;99.90
6666;DHT22;3369;49.906;8.598;2024-03-17T06:36:51;4.80;99.90
6666;DHT22;3369;49.906;8.598;2024-03-17T06:39:16;4.80;99.90
6666;DHT22;3369;49.906;8.598;2024-03-17T06:41:45;4.90;99.90
6666;DHT22;3369;49.906;8.598;2024-03-17T06:44:10;5.00;99.90
6666;DHT22;3369;49.906;8.598;2024-03-17T06:46:37;5.10;99.90
6666;DHT22;3369;49.906;8.598;2024-03-17T06:49:02;5.20;99.90
6666;DHT22;3369;49.906;8.598;2024-03-17T06:51:28;5.30;99.90
6666;DHT22;3369;49.906;8.598;2024-03-17T06:53:53;5.30;99.90
6666;DHT22;3369;49.906;8.598;2024-03-17T06:56:19;5.40;99.90
6666;DHT22;3369;49.906;8.598;2024-03-17T06:58:45;5.50;99.90
6666;DHT22;3369;49.906;8.598;2024-03-17T07:01:10;5.60;99.90
6666;DHT22;3369;49.906;8.598;2024-03-17T07:03:36;5.60;99.90
6666;DHT22;3369;49.906;8.598;2024-03-17T07:06:02;5.80;99.90
6666;DHT22;3369;49.906;8.598;2024-03-17T07:08:29;5.90;99.90
6666;DHT22;3369;49.906;8.598;2024-03-17T07:11:03;6.00;99.90
6666;DHT22;3369;49.906;8.598;2024-03-17T07:13:33;6.10;99.90
6666;DHT22;3369;49.906;8.598;2024-03-17T07:16:03;6.20;99.90
6666;DHT22;3369;49.906;8.598;2024-03-17T07:18:29;6.30;99.90
6666;DHT22;3369;49.906;8.598;2024-03-17T07:20:59;6.40;99.90
6666;DHT22;3369;49.906;8.598;2024-03-17T07:23:25;6.50;99.90
6666;DHT22;3369;49.906;8.598;2024-03-17T07:26:02;6.50;99.90
6666;DHT22;3369;49.906;8.598;2024-03-17T07:28:30;6.60;99.90
6666;DHT22;3369;49.906;8.598;2024-03-17T07:30:58;6.70;99.90
6666;DHT22;3369;49.906;8.598;2024-03-17T07:33:24;6.80;99.90
6666;DHT22;3369;49.906;8.598;2024-03-17T07:35:51;6.90;99.90
6666;DHT22;3369;49.906;8.598;2024-03-17T07:38:18;7.00;99.90
6666;DHT22;3369;49.906;8.598;2024-03-17T07:40:45;7.10;99.90
6666;DHT22;3369;49.906;8.598;2024-03-17T07:43:11;7.20;99.90
6666;DHT22;3369;49.906;8.598;2024-03-17T07:45:37;7.30;99.90
6666;DHT22;3369;49.906;8.598;2024-03-17T07:48:03;7.40;99.90
6666;DHT22;3369;49.906;8.598;2024-03-17T07:50:29;7.50;99.90
6666;DHT22;3369;49.906;8.598;2024-03-17T07:52:54;7.60;99.90
6666;DHT22;3369;49.906;8.598;2024-03-17T07:55:20;7.70;99.90
6666;DHT22;3369;49.906;8.598;2024-03-17T07:57:45;7.80;99.90
6666;DHT22;3369;49.906;8.598;2024-03-17T08:00:11;7.90;99.90
6666;DHT22;3369;49.906;8.598;2024-03-17T08:02:45;8.10;99.90
6666;DHT22;3369;49.906;8.598;2024-03-17T08:05:11;8.30;99.90
6666;DHT22;3369;49.906;8.598;2024-03-17T08:07:36;8.50;99.90
6666;DHT22;3369;49.906;8.598;2024-03-17T08:10:02;8.70;99.90
6666;DHT22;3369;49.906;8.598;2024-03-17T08:12:30;8.90;99.90
6666;DHT22;3369;49.906;8.598;2024-03-17T08:14:56;9.00;99.90
6666;DHT22;3369;49.906;8.598;2024-03-17T08:17:21;9.10;99.90
6666;DHT22;3369;49.906;8.598;2024-03-17T08:19:47;9.20;99.90
6666;DHT22;3369;49.906;8.598;2024-03-17T08:22:13;9.20;99.90
6666;DHT22;3369;49.906;8.598;2024-03-17T08:24:40;9.30;99.90
6666;DHT22;3369;49.906;8.598;2024-03-17T08:27:05;9.30;99.90
6666;DHT22;3369;49.906;8.598;2024-03-17T08:29:32;9.40;99.90
6666;DHT22;3369;49.906;8.598;2024-03-17T08:31:58;9.40;99.90
6666;DHT22;3369;49.906;8.598;2024-03-17T08:34:24;9.50;99.90
6666;DHT22;3369;49.906;8.598;2024-03-17T08:36:50;9.50;99.90
6666;DHT22;3369;49.906;8.598;2024-03-17T08:39:16;9.60;99.90
6666;DHT22;3369;49.906;8.598;2024-03-17T08:41:42;9.80;99.90
6666;DHT22;3369;49.906;8.598;2024-03-17T08:44:09;9.80;99.90
6666;DHT22;3369;49.906;8.598;2024-03-17T08:46:35;9.90;99.90
6666;DHT22;3369;49.906;8.598;2024-03-17T08:49:01;9.90;99.90
6666;DHT22;3369;49.906;8.598;2024-03-17T08:51:27;10.00;99.90
6666;DHT22;3369;49.906;8.598;2024-03-17T08:53:53;10.10;99.90
6666;DHT22;3369;49.906;8.598;2024-03-17T08:56:19;10.20;99.90
6666;DHT22;3369;49.906;8.598;2024-03-17T08:58:46;10.30;99.90
6666;DHT22;3369;49.906;8.598;2024-03-17T09:01:14;10.50;99.90
6666;DHT22;3369;49.906;8.598;2024-03-17T09:03:40;10.50;99.90
6666;DHT22;3369;49.906;8.598;2024-03-17T09:06:15;10.60;99.90
6666;DHT22;3369;49.906;8.598;2024-03-17T09:08:41;10.70;99.90
6666;DHT22;3369;49.906;8.598;2024-03-17T09:11:12;10.70;99.90
6666;DHT22;3369;49.906;8.598;2024-03-17T09:13:38;10.70;99.90
6666;DHT22;3369;49.906;8.598;2024-03-17T09:16:03;10.80;99.90
6666;DHT22;3369;49.906;8.598;2024-03-17T09:18:31;10.70;99.90
6666;DHT22;3369;49.906;8.598;2024-03-17T09:23:23;10.90;99.90
6666;DHT22;3369;49.906;8.598;2024-03-17T09:26:09;11.00;99.90
6666;DHT22;3369;49.906;8.598;2024-03-17T09:28:36;11.00;99.90
6666;DHT22;3369;49.906;8.598;2024-03-17T09:31:01;11.10;99.90
6666;DHT22;3369;49.906;8.598;2024-03-17T09:33:29;11.20;99.90
6666;DHT22;3369;49.906;8.598;2024-03-17T09:35:59;11.30;99.90
6666;DHT22;3369;49.906;8.598;2024-03-17T09:38:26;11.40;99.90
6666;DHT22;3369;49.906;8.598;2024-03-17T09:40:52;11.40;99.90
6666;DHT22;3369;49.906;8.598;2024-03-17T09:43:22;11.50;99.90
6666;DHT22;3369;49.906;8.598;2024-03-17T09:45:49;11.50;99.90
6666;DHT22;3369;49.906;8.598;2024-03-17T09:48:17;11.60;99.80
6666;DHT22;3369;49.906;8.598;2024-03-17T09:50:49;11.80;99.90
6666;DHT22;3369;49.906;8.598;2024-03-17T09:53:16;11.80;99.70
6666;DHT22;3369;49.906;8.598;2024-03-17T09:55:43;11.90;99.50
6666;DHT22;3369;49.906;8.598;2024-03-17T09:58:16;11.90;99.40
6666;DHT22;3369;49.906;8.598;2024-03-17T10:00:46;11.90;99.20
6666;DHT22;3369;49.906;8.598;2024-03-17T10:03:12;12.00;99.20
6666;DHT22;3369;49.906;8.598;2024-03-17T10:05:38;12.00;99.50
6666;DHT22;3369;49.906;8.598;2024-03-17T10:08:04;12.10;99.20
6666;DHT22;3369;49.906;8.598;2024-03-17T10:10:29;12.10;98.80
6666;DHT22;3369;49.906;8.598;2024-03-17T10:12:55;12.20;98.80
6666;DHT22;3369;49.906;8.598;2024-03-17T10:15:21;12.30;98.80
6666;DHT22;3369;49.906;8.598;2024-03-17T10:17:47;12.40;98.20
6666;DHT22;3369;49.906;8.598;2024-03-17T10:22:57;12.70;97.60
6666;DHT22;3369;49.906;8.598;2024-03-17T10:25:25;12.70;97.40
6666;DHT22;3369;49.906;8.598;2024-03-17T10:27:52;12.70;96.90
6666;DHT22;3369;49.906;8.598;2024-03-17T10:30:18;12.80;97.00
6666;DHT22;3369;49.906;8.598;2024-03-17T10:32:45;12.90;96.90
6666;DHT22;3369;49.906;8.598;2024-03-17T10:38:03;13.20;96.80
6666;DHT22;3369;49.906;8.598;2024-03-17T10:40:30;13.30;96.20
6666;DHT22;3369;49.906;8.598;2024-03-17T10:42:58;13.30;96.00
6666;DHT22;3369;49.906;8.598;2024-03-17T10:45:26;13.20;95.20
6666;DHT22;3369;49.906;8.598;2024-03-17T10:47:52;13.10;95.00
6666;DHT22;3369;49.906;8.598;2024-03-17T10:50:22;13.10;95.40
6666;DHT22;3369;49.906;8.598;2024-03-17T10:52:52;13.00;95.30
6666;DHT22;3369;49.906;8.598;2024-03-17T10:55:25;13.10;95.60
6666;DHT22;3369;49.906;8.598;2024-03-17T10:57:53;13.00;95.40
6666;DHT22;3369;49.906;8.598;2024-03-17T11:00:22;13.00;95.20
6666;DHT22;3369;49.906;8.598;2024-03-17T11:02:54;12.90;95.30
6666;DHT22;3369;49.906;8.598;2024-03-17T11:05:27;12.90;95.60
6666;DHT22;3369;49.906;8.598;2024-03-17T11:07:59;12.80;95.60
6666;DHT22;3369;49.906;8.598;2024-03-17T11:10:34;12.80;95.70
6666;DHT22;3369;49.906;8.598;2024-03-17T11:13:02;12.80;95.60
6666;DHT22;3369;49.906;8.598;2024-03-17T11:20:38;12.80;95.70
6666;DHT22;3369;49.906;8.598;2024-03-17T11:23:04;12.80;95.60
6666;DHT22;3369;49.906;8.598;2024-03-17T11:25:36;12.80;95.60
6666;DHT22;3369;49.906;8.598;2024-03-17T11:28:03;12.90;95.80
6666;DHT22;3369;49.906;8.598;2024-03-17T11:38:55;13.10;95.60
6666;DHT22;3369;49.906;8.598;2024-03-17T11:41:40;13.20;95.80
6666;DHT22;3369;49.906;8.598;2024-03-17T11:44:32;13.30;96.10
6666;DHT22;3369;49.906;8.598;2024-03-17T11:47:03;13.40;96.10
6666;DHT22;3369;49.906;8.598;2024-03-17T11:49:34;13.50;96.40
6666;DHT22;3369;49.906;8.598;2024-03-17T11:52:19;13.60;96.40
6666;DHT22;3369;49.906;8.598;2024-03-17T11:54:46;13.70;96.30
6666;DHT22;3369;49.906;8.598;2024-03-17T11:57:15;13.80;95.80
6666;DHT22;3369;49.906;8.598;2024-03-17T11:59:46;13.80;95.80
6666;DHT22;3369;49.906;8.598;2024-03-17T12:02:19;13.80;95.70
6666;DHT22;3369;49.906;8.598;2024-03-17T12:04:45;13.70;95.70
6666;DHT22;3369;49.906;8.598;2024-03-17T12:07:16;13.70;95.90
6666;DHT22;3369;49.906;8.598;2024-03-17T12:09:43;13.70;95.80
6666;DHT22;3369;49.906;8.598;2024-03-17T12:12:16;13.60;95.60
6666;DHT22;3369;49.906;8.598;2024-03-17T12:14:42;13.60;95.70
6666;DHT22;3369;49.906;8.598;2024-03-17T12:17:09;13.60;95.80
6666;DHT22;3369;49.906;8.598;2024-03-17T12:19:36;13.60;95.90
6666;DHT22;3369;49.906;8.598;2024-03-17T12:22:03;13.60;96.00
6666;DHT22;3369;49.906;8.598;2024-03-17T12:24:35;13.60;96.00
6666;DHT22;3369;49.906;8.598;2024-03-17T12:27:04;13.60;95.80
6666;DHT22;3369;49.906;8.598;2024-03-17T12:32:02;13.60;96.00
6666;DHT22;3369;49.906;8.598;2024-03-17T12:34:30;13.50;96.00
6666;DHT22;3369;49.906;8.598;2024-03-17T12:36:57;13.50;96.10
6666;DHT22;3369;49.906;8.598;2024-03-17T12:39:25;13.60;96.20
6666;DHT22;3369;49.906;8.598;2024-03-17T12:42:11;13.50;96.20
6666;DHT22;3369;49.906;8.598;2024-03-17T12:44:49;13.60;96.20
6666;DHT22;3369;49.906;8.598;2024-03-17T12:47:17;13.50;95.90
6666;DHT22;3369;49.906;8.598;2024-03-17T12:49:50;13.50;96.00
6666;DHT22;3369;49.906;8.598;2024-03-17T12:52:21;13.40;95.60
6666;DHT22;3369;49.906;8.598;2024-03-17T12:55:03;13.40;95.50
6666;DHT22;3369;49.906;8.598;2024-03-17T13:00:45;13.40;95.70
6666;DHT22;3369;49.906;8.598;2024-03-17T13:03:24;13.40;95.90
6666;DHT22;3369;49.906;8.598;2024-03-17T13:05:50;13.30;95.70
6666;DHT22;3369;49.906;8.598;2024-03-17T13:08:15;13.30;95.70
6666;DHT22;3369;49.906;8.598;2024-03-17T13:10:41;13.20;95.50
6666;DHT22;3369;49.906;8.598;2024-03-17T13:13:10;13.20;95.60
6666;DHT22;3369;49.906;8.598;2024-03-17T13:15:38;13.30;95.80
6666;DHT22;3369;49.906;8.598;2024-03-17T13:18:04;13.20;96.00
6666;DHT22;3369;49.906;8.598;2024-03-17T13:20:31;13.20;95.90
6666;DHT22;3369;49.906;8.598;2024-03-17T13:22:57;13.20;95.70
6666;DHT22;3369;49.906;8.598;2024-03-17T13:25:24;13.20;95.80
6666;DHT22;3369;49.906;8.598;2024-03-17T13:27:53;13.20;95.80
6666;DHT22;3369;49.906;8.598;2024-03-17T13:30:20;13.30;96.00
6666;DHT22;3369;49.906;8.598;2024-03-17T13:32:53;13.20;96.00
6666;DHT22;3369;49.906;8.598;2024-03-17T13:35:27;13.30;96.20
6666;DHT22;3369;49.906;8.598;2024-03-17T13:37:54;13.30;96.20
6666;DHT22;3369;49.906;8.598;2024-03-17T13:40:21;13.40;96.20
6666;DHT22;3369;49.906;8.598;2024-03-17T13:42:51;13.40;96.10
6666;DHT22;3369;49.906;8.598;2024-03-17T13:45:18;13.40;96.10
6666;DHT22;3369;49.906;8.598;2024-03-17T13:48:08;13.40;96.20
6666;DHT22;3369;49.906;8.598;2024-03-17T13:50:36;13.40;96.20
6666;DHT22;3369;49.906;8.598;2024-03-17T13:53:02;13.40;96.40
6666;DHT22;3369;49.906;8.598;2024-03-17T13:55:28;13.40;95.90
6666;DHT22;3369;49.906;8.598;2024-03-17T13:57:57;13.40;95.90
6666;DHT22;3369;49.906;8.598;2024-03-17T14:00:28;13.40;95.70
6666;DHT22;3369;49.906;8.598;2024-03-17T14:02:55;13.30;95.50
6666;DHT22;3369;49.906;8.598;2024-03-17T14:05:27;13.30;95.50
6666;DHT22;3369;49.906;8.598;2024-03-17T14:07:53;13.30;95.60
6666;DHT22;3369;49.906;8.598;2024-03-17T14:10:20;13.30;95.70
6666;DHT22;3369;49.906;8.598;2024-03-17T14:12:46;13.30;95.80
6666;DHT22;3369;49.906;8.598;2024-03-17T14:15:14;13.30;95.90
6666;DHT22;3369;49.906;8.598;2024-03-17T14:17:40;13.30;96.10
6666;DHT22;3369;49.906;8.598;2024-03-17T14:20:07;13.30;96.20
6666;DHT22;3369;49.906;8.598;2024-03-17T14:22:39;13.30;96.20
6666;DHT22;3369;49.906;8.598;2024-03-17T14:25:10;13.30;96.10
6666;DHT22;3369;49.906;8.598;2024-03-17T14:27:38;13.20;96.10
6666;DHT22;3369;49.906;8.598;2024-03-17T14:30:04;13.20;96.10
6666;DHT22;3369;49.906;8.598;2024-03-17T14:32:31;13.20;96.20
6666;DHT22;3369;49.906;8.598;2024-03-17T14:34:57;13.20;96.10
6666;DHT22;3369;49.906;8.598;2024-03-17T14:37:23;13.10;95.90
6666;DHT22;3369;49.906;8.598;2024-03-17T14:39:51;13.10;96.00
6666;DHT22;3369;49.906;8.598;2024-03-17T14:42:16;13.10;96.10
6666;DHT22;3369;49.906;8.598;2024-03-17T14:44:42;13.10;96.20
6666;DHT22;3369;49.906;8.598;2024-03-17T14:47:08;13.10;96.30
6666;DHT22;3369;49.906;8.598;2024-03-17T14:49:33;13.10;96.30
6666;DHT22;3369;49.906;8.598;2024-03-17T14:51:59;13.10;96.20
6666;DHT22;3369;49.906;8.598;2024-03-17T14:54:25;13.00;96.10
6666;DHT22;3369;49.906;8.598;2024-03-17T14:56:52;13.00;96.20
6666;DHT22;3369;49.906;8.598;2024-03-17T14:59:19;13.00;96.30
6666;DHT22;3369;49.906;8.598;2024-03-17T15:01:45;13.10;96.40
6666;DHT22;3369;49.906;8.598;2024-03-17T15:04:11;13.00;96.30
6666;DHT22;3369;49.906;8.598;2024-03-17T15:06:37;13.00;96.60
6666;DHT22;3369;49.906;8.598;2024-03-17T15:09:02;13.00;96.30
6666;DHT22;3369;49.906;8.598;2024-03-17T15:11:30;13.00;96.30
6666;DHT22;3369;49.906;8.598;2024-03-17T15:13:56;13.00;96.40
6666;DHT22;3369;49.906;8.598;2024-03-17T15:16:21;12.90;96.30
6666;DHT22;3369;49.906;8.598;2024-03-17T15:18:48;12.90;96.40
6666;DHT22;3369;49.906;8.598;2024-03-17T15:21:15;12.90;96.40
6666;DHT22;3369;49.906;8.598;2024-03-17T15:23:41;12.90;96.50
6666;DHT22;3369;49.906;8.598;2024-03-17T15:26:07;13.00;96.60
6666;DHT22;3369;49.906;8.598;2024-03-17T15:28:36;13.00;96.60
6666;DHT22;3369;49.906;8.598;2024-03-17T15:31:08;13.00;96.60
6666;DHT22;3369;49.906;8.598;2024-03-17T15:33:35;13.00;96.60
6666;DHT22;3369;49.906;8.598;2024-03-17T15:36:06;13.00;96.60
6666;DHT22;3369;49.906;8.598;2024-03-17T15:38:32;13.00;96.60
6666;DHT22;3369;49.906;8.598;2024-03-17T15:41:06;13.10;96.60
6666;DHT22;3369;49.906;8.598;2024-03-17T15:43:36;13.10;96.60
6666;DHT22;3369;49.906;8.598;2024-03-17T15:46:20;13.10;96.40
6666;DHT22;3369;49.906;8.598;2024-03-17T15:48:48;13.10;96.30
6666;DHT22;3369;49.906;8.598;2024-03-17T15:51:14;13.20;96.40
6666;DHT22;3369;49.906;8.598;2024-03-17T15:53:41;13.20;96.40
6666;DHT22;3369;49.906;8.598;2024-03-17T15:56:07;13.20;96.40
6666;DHT22;3369;49.906;8.598;2024-03-17T15:58:33;13.20;96.30
6666;DHT22;3369;49.906;8.598;2024-03-17T16:00:59;13.20;96.30
6666;DHT22;3369;49.906;8.598;2024-03-17T16:03:31;13.20;96.20
6666;DHT22;3369;49.906;8.598;2024-03-17T16:06:10;13.30;96.30
6666;DHT22;3369;49.906;8.598;2024-03-17T16:08:44;13.30;96.30
6666;DHT22;3369;49.906;8.598;2024-03-17T16:11:11;13.30;96.20
6666;DHT22;3369;49.906;8.598;2024-03-17T16:13:43;13.30;96.60
6666;DHT22;3369;49.906;8.598;2024-03-17T16:16:17;13.30;96.30
6666;DHT22;3369;49.906;8.598;2024-03-17T16:18:43;13.30;96.20
6666;DHT22;3369;49.906;8.598;2024-03-17T16:21:15;13.30;96.20
6666;DHT22;3369;49.906;8.598;2024-03-17T16:23:48;13.20;96.30
6666;DHT22;3369;49.906;8.598;2024-03-17T16:26:15;13.20;96.20
6666;DHT22;3369;49.906;8.598;2024-03-17T16:28:40;13.10;96.20
6666;DHT22;3369;49.906;8.598;2024-03-17T16:31:07;13.10;96.30
6666;DHT22;3369;49.906;8.598;2024-03-17T16:33:36;13.10;96.40
6666;DHT22;3369;49.906;8.598;2024-03-17T16:36:03;13.10;96.50
6666;DHT22;3369;49.906;8.598;2024-03-17T16:38:33;13.00;96.50
6666;DHT22;3369;49.906;8.598;2024-03-17T16:40:59;13.00;96.60